Reecon Whale — 9HA2885 — position and weather

sailwx.info

Track history (hours):
 
Tides and Currents Weather Stations Pressure Air Temp Water Temp Dewpoint Dewpoint Depression Visibility Wind Speed Wind Dir Waves Ship Positions

Reecon Whale

Last reported at 2015-Mar-27 22:32 UTC. Time now 2015-Mar-29 19:40 UTC.
Position N 36°48' E 003°05'.

Length 145 m; draft 8.8 m.

Type: Ship. MMSI: 256579000.

Date/timePositionNaut miles runAvg speedWind from/ knotsBaromVisibWave heightAir tempDewpointWater temp
2015-Mar-27 22:32N 36°48' E 003°05'0 0.0
2015-Mar-27 20:26N 36°48' E 003°05'  
2015-Mar-24 08:28N 36°44' E 013°15'1011.2
2015-Mar-24 07:33N 36°40' E 013°26'1211.6
2015-Mar-24 06:33N 36°36' E 013°40'1211.7
2015-Mar-24 05:33N 36°31' E 013°53'1211.6
2015-Mar-24 04:33N 36°27' E 014°06'1211.4
2015-Mar-24 03:33N 36°22' E 014°20'1211.3
2015-Mar-24 02:30N 36°20' E 014°34'44210.3
2015-Mar-22 07:31N 37°29' E 023°41'1111.4
2015-Mar-22 06:33N 37°40' E 023°42'1111.5
2015-Mar-22 05:33N 37°50' E 023°37'7 7.1
2015-Mar-22 04:33N 37°57' E 023°36'0 0.0
2015-Mar-22 03:30N 37°57' E 023°36'0 0.0
2015-Mar-22 02:33N 37°57' E 023°36'0 0.0
2015-Mar-22 01:30N 37°57' E 023°36'0 0.0
2015-Mar-22 00:33N 37°57' E 023°36'0 0.0
2015-Mar-21 23:33N 37°57' E 023°36'0 0.0
2015-Mar-21 22:24N 37°57' E 023°36'0 0.0
2015-Mar-21 21:33N 37°57' E 023°36'0 0.0
2015-Mar-21 20:33N 37°57' E 023°36'0 0.0
2015-Mar-21 19:33N 37°57' E 023°36'0 0.0
2015-Mar-21 18:33N 37°57' E 023°36'0 0.0
2015-Mar-21 17:33N 37°57' E 023°36'0 0.0
2015-Mar-21 16:30N 37°57' E 023°36'0 0.0
2015-Mar-21 15:33N 37°57' E 023°36'0 0.0
2015-Mar-21 14:33N 37°57' E 023°36'0 0.0
2015-Mar-21 13:33N 37°57' E 023°36'0 0.0
2015-Mar-21 12:33N 37°57' E 023°36'0 0.0
2015-Mar-21 11:33N 37°58' E 023°36'0 0.0
2015-Mar-21 10:33N 37°57' E 023°36'0 0.0
2015-Mar-21 09:30N 37°57' E 023°36'0 0.0
2015-Mar-21 08:33N 37°57' E 023°36'0 0.0
2015-Mar-21 07:33N 37°57' E 023°36'0 0.0
2015-Mar-21 06:30N 37°57' E 023°36'0 0.1
2015-Mar-21 05:31N 37°57' E 023°36'2 2.5
2015-Mar-21 04:34N 37°55' E 023°37'2 2.4
2015-Mar-21 03:33N 37°53' E 023°38'8 8.4
2015-Mar-21 02:33N 37°45' E 023°43'9 8.7
2015-Mar-21 01:34N 37°37' E 023°45'9 9.2
2015-Mar-21 00:34N 37°28' E 023°43'9 9.4
2015-Mar-20 23:33N 37°19' E 023°40'  
2015-Mar-18 19:27N 36°35' E 013°39'3110.2
2015-Mar-18 16:24N 36°46' E 013°03'  
Track history (hours):
 
Tides and Currents Weather Stations Pressure Air Temp Water Temp Dewpoint Dewpoint Depression Visibility Wind Speed Wind Dir Waves Ship Positions

Reecon Whale

Last reported at 2015-Mar-27 22:32 UTC. Time now 2015-Mar-29 19:40 UTC.
Position N 36°48' E 003°05'.

Length 145 m; draft 8.8 m.

Type: Ship. MMSI: 256579000.

Date/timePositionNaut miles runAvg speedWind from/ knotsBaromVisibWave heightAir tempDewpointWater temp
2015-Mar-27 22:32N 36°48' E 003°05'0 0.0
2015-Mar-27 20:26N 36°48' E 003°05'  
2015-Mar-24 08:28N 36°44' E 013°15'1011.2
2015-Mar-24 07:33N 36°40' E 013°26'1211.6
2015-Mar-24 06:33N 36°36' E 013°40'1211.7
2015-Mar-24 05:33N 36°31' E 013°53'1211.6
2015-Mar-24 04:33N 36°27' E 014°06'1211.4
2015-Mar-24 03:33N 36°22' E 014°20'1211.3
2015-Mar-24 02:30N 36°20' E 014°34'44210.3
2015-Mar-22 07:31N 37°29' E 023°41'1111.4
2015-Mar-22 06:33N 37°40' E 023°42'1111.5
2015-Mar-22 05:33N 37°50' E 023°37'7 7.1
2015-Mar-22 04:33N 37°57' E 023°36'0 0.0
2015-Mar-22 03:30N 37°57' E 023°36'0 0.0
2015-Mar-22 02:33N 37°57' E 023°36'0 0.0
2015-Mar-22 01:30N 37°57' E 023°36'0 0.0
2015-Mar-22 00:33N 37°57' E 023°36'0 0.0
2015-Mar-21 23:33N 37°57' E 023°36'0 0.0
2015-Mar-21 22:24N 37°57' E 023°36'0 0.0
2015-Mar-21 21:33N 37°57' E 023°36'0 0.0
2015-Mar-21 20:33N 37°57' E 023°36'0 0.0
2015-Mar-21 19:33N 37°57' E 023°36'0 0.0
2015-Mar-21 18:33N 37°57' E 023°36'0 0.0
2015-Mar-21 17:33N 37°57' E 023°36'0 0.0
2015-Mar-21 16:30N 37°57' E 023°36'0 0.0
2015-Mar-21 15:33N 37°57' E 023°36'0 0.0
2015-Mar-21 14:33N 37°57' E 023°36'0 0.0
2015-Mar-21 13:33N 37°57' E 023°36'0 0.0
2015-Mar-21 12:33N 37°57' E 023°36'0 0.0
2015-Mar-21 11:33N 37°58' E 023°36'0 0.0
2015-Mar-21 10:33N 37°57' E 023°36'0 0.0
2015-Mar-21 09:30N 37°57' E 023°36'0 0.0
2015-Mar-21 08:33N 37°57' E 023°36'0 0.0
2015-Mar-21 07:33N 37°57' E 023°36'0 0.0
2015-Mar-21 06:30N 37°57' E 023°36'0 0.1
2015-Mar-21 05:31N 37°57' E 023°36'2 2.5
2015-Mar-21 04:34N 37°55' E 023°37'2 2.4
2015-Mar-21 03:33N 37°53' E 023°38'8 8.4
2015-Mar-21 02:33N 37°45' E 023°43'9 8.7
2015-Mar-21 01:34N 37°37' E 023°45'9 9.2
2015-Mar-21 00:34N 37°28' E 023°43'9 9.4
2015-Mar-20 23:33N 37°19' E 023°40'  
2015-Mar-18 19:27N 36°35' E 013°39'3110.2
2015-Mar-18 16:24N 36°46' E 013°03'  

Dump ship's entire track history